sensor_id;sensor_type;location;lat;lon;timestamp;temperature;humidity
5808;DHT22;2930;42.678;23.312;2022-11-20T00:00:29;16.90;78.10
5808;DHT22;2930;42.678;23.312;2022-11-20T00:02:54;16.90;78.10
5808;DHT22;2930;42.678;23.312;2022-11-20T00:05:20;17.00;76.20
5808;DHT22;2930;42.678;23.312;2022-11-20T00:07:46;17.30;75.60
5808;DHT22;2930;42.678;23.312;2022-11-20T00:10:12;17.50;75.60
5808;DHT22;2930;42.678;23.312;2022-11-20T00:12:37;17.80;74.60
5808;DHT22;2930;42.678;23.312;2022-11-20T00:15:04;18.00;74.10
5808;DHT22;2930;42.678;23.312;2022-11-20T00:17:30;18.20;73.90
5808;DHT22;2930;42.678;23.312;2022-11-20T00:19:55;18.40;72.80
5808;DHT22;2930;42.678;23.312;2022-11-20T00:22:22;18.50;72.90
5808;DHT22;2930;42.678;23.312;2022-11-20T00:24:47;18.70;72.60
5808;DHT22;2930;42.678;23.312;2022-11-20T00:27:13;18.70;71.60
5808;DHT22;2930;42.678;23.312;2022-11-20T00:29:38;18.80;70.90
5808;DHT22;2930;42.678;23.312;2022-11-20T00:32:04;18.90;70.70
5808;DHT22;2930;42.678;23.312;2022-11-20T00:34:30;19.00;70.90
5808;DHT22;2930;42.678;23.312;2022-11-20T00:36:55;19.20;70.70
5808;DHT22;2930;42.678;23.312;2022-11-20T00:39:21;19.20;69.50
5808;DHT22;2930;42.678;23.312;2022-11-20T00:41:46;19.30;69.50
5808;DHT22;2930;42.678;23.312;2022-11-20T00:44:12;19.30;69.90
5808;DHT22;2930;42.678;23.312;2022-11-20T00:46:38;19.40;69.60
5808;DHT22;2930;42.678;23.312;2022-11-20T00:49:03;19.50;69.40
5808;DHT22;2930;42.678;23.312;2022-11-20T00:51:29;19.60;70.50
5808;DHT22;2930;42.678;23.312;2022-11-20T00:53:56;19.60;68.80
5808;DHT22;2930;42.678;23.312;2022-11-20T00:56:21;19.60;69.20
5808;DHT22;2930;42.678;23.312;2022-11-20T00:58:48;19.60;68.50
5808;DHT22;2930;42.678;23.312;2022-11-20T01:01:22;19.60;68.60
5808;DHT22;2930;42.678;23.312;2022-11-20T01:03:52;19.60;68.50
5808;DHT22;2930;42.678;23.312;2022-11-20T01:06:30;19.60;68.30
5808;DHT22;2930;42.678;23.312;2022-11-20T01:08:58;19.60;68.20
5808;DHT22;2930;42.678;23.312;2022-11-20T01:11:31;19.60;68.20
5808;DHT22;2930;42.678;23.312;2022-11-20T01:13:58;19.70;69.10
5808;DHT22;2930;42.678;23.312;2022-11-20T01:16:25;19.70;68.10
5808;DHT22;2930;42.678;23.312;2022-11-20T01:18:53;19.70;68.80
5808;DHT22;2930;42.678;23.312;2022-11-20T01:21:22;19.70;68.30
5808;DHT22;2930;42.678;23.312;2022-11-20T01:23:49;19.70;68.70
5808;DHT22;2930;42.678;23.312;2022-11-20T01:26:18;19.80;68.20
5808;DHT22;2930;42.678;23.312;2022-11-20T01:28:44;19.70;68.30
5808;DHT22;2930;42.678;23.312;2022-11-20T01:31:21;19.70;68.00
5808;DHT22;2930;42.678;23.312;2022-11-20T01:33:49;19.60;68.20
5808;DHT22;2930;42.678;23.312;2022-11-20T01:36:15;19.60;67.90
5808;DHT22;2930;42.678;23.312;2022-11-20T01:38:41;19.70;68.70
5808;DHT22;2930;42.678;23.312;2022-11-20T01:41:08;19.70;68.50
5808;DHT22;2930;42.678;23.312;2022-11-20T01:43:34;19.70;68.70
5808;DHT22;2930;42.678;23.312;2022-11-20T01:46:17;19.70;68.00
5808;DHT22;2930;42.678;23.312;2022-11-20T01:54:05;19.70;69.30
5808;DHT22;2930;42.678;23.312;2022-11-20T01:56:35;19.70;69.10
5808;DHT22;2930;42.678;23.312;2022-11-20T01:59:04;19.70;69.10
5808;DHT22;2930;42.678;23.312;2022-11-20T02:01:31;19.60;68.90
5808;DHT22;2930;42.678;23.312;2022-11-20T02:03:58;19.60;68.50
5808;DHT22;2930;42.678;23.312;2022-11-20T02:06:27;19.60;68.80
5808;DHT22;2930;42.678;23.312;2022-11-20T02:08:54;19.50;68.00
5808;DHT22;2930;42.678;23.312;2022-11-20T02:11:20;19.40;69.30
5808;DHT22;2930;42.678;23.312;2022-11-20T02:13:46;19.40;68.90
5808;DHT22;2930;42.678;23.312;2022-11-20T02:16:24;19.40;69.00
5808;DHT22;2930;42.678;23.312;2022-11-20T02:18:51;19.40;69.10
5808;DHT22;2930;42.678;23.312;2022-11-20T02:24:21;19.30;68.40
5808;DHT22;2930;42.678;23.312;2022-11-20T02:27:02;19.30;68.50
5808;DHT22;2930;42.678;23.312;2022-11-20T02:29:46;19.40;69.10
5808;DHT22;2930;42.678;23.312;2022-11-20T02:32:21;19.40;69.10
5808;DHT22;2930;42.678;23.312;2022-11-20T02:34:47;19.40;69.20
5808;DHT22;2930;42.678;23.312;2022-11-20T02:37:12;19.40;68.90
5808;DHT22;2930;42.678;23.312;2022-11-20T02:39:39;19.40;69.00
5808;DHT22;2930;42.678;23.312;2022-11-20T02:42:05;19.40;68.40
5808;DHT22;2930;42.678;23.312;2022-11-20T02:44:31;19.40;69.40
5808;DHT22;2930;42.678;23.312;2022-11-20T02:46:57;19.40;69.20
5808;DHT22;2930;42.678;23.312;2022-11-20T02:49:24;19.30;68.80
5808;DHT22;2930;42.678;23.312;2022-11-20T02:51:49;19.30;69.80
5808;DHT22;2930;42.678;23.312;2022-11-20T02:54:15;19.40;69.20
5808;DHT22;2930;42.678;23.312;2022-11-20T02:56:41;19.40;69.90
5808;DHT22;2930;42.678;23.312;2022-11-20T02:59:07;19.40;69.50
5808;DHT22;2930;42.678;23.312;2022-11-20T03:01:33;19.30;69.80
5808;DHT22;2930;42.678;23.312;2022-11-20T03:03:58;19.30;70.30
5808;DHT22;2930;42.678;23.312;2022-11-20T03:06:24;19.20;70.60
5808;DHT22;2930;42.678;23.312;2022-11-20T03:08:50;19.10;70.80
5808;DHT22;2930;42.678;23.312;2022-11-20T03:11:15;19.10;70.70
5808;DHT22;2930;42.678;23.312;2022-11-20T03:13:42;19.10;70.80
5808;DHT22;2930;42.678;23.312;2022-11-20T03:16:16;19.00;70.90
5808;DHT22;2930;42.678;23.312;2022-11-20T03:18:42;19.00;71.40
5808;DHT22;2930;42.678;23.312;2022-11-20T03:21:10;19.10;71.40
5808;DHT22;2930;42.678;23.312;2022-11-20T03:23:36;19.00;71.60
5808;DHT22;2930;42.678;23.312;2022-11-20T03:26:22;19.10;71.50
5808;DHT22;2930;42.678;23.312;2022-11-20T03:28:53;19.00;71.60
5808;DHT22;2930;42.678;23.312;2022-11-20T03:31:21;18.90;71.90
5808;DHT22;2930;42.678;23.312;2022-11-20T03:33:48;18.90;71.90
5808;DHT22;2930;42.678;23.312;2022-11-20T03:36:15;18.90;71.80
5808;DHT22;2930;42.678;23.312;2022-11-20T03:38:42;18.70;71.70
5808;DHT22;2930;42.678;23.312;2022-11-20T03:41:13;18.70;72.00
5808;DHT22;2930;42.678;23.312;2022-11-20T03:43:40;18.80;72.20
5808;DHT22;2930;42.678;23.312;2022-11-20T03:46:06;18.80;72.00
5808;DHT22;2930;42.678;23.312;2022-11-20T03:48:32;18.80;71.90
5808;DHT22;2930;42.678;23.312;2022-11-20T03:51:27;18.80;71.60
5808;DHT22;2930;42.678;23.312;2022-11-20T03:53:55;18.70;71.80
5808;DHT22;2930;42.678;23.312;2022-11-20T03:56:26;18.80;72.20
5808;DHT22;2930;42.678;23.312;2022-11-20T03:58:52;18.80;71.90
5808;DHT22;2930;42.678;23.312;2022-11-20T04:01:20;18.70;71.80
5808;DHT22;2930;42.678;23.312;2022-11-20T04:03:47;18.80;72.20
5808;DHT22;2930;42.678;23.312;2022-11-20T04:08:40;18.70;71.80
5808;DHT22;2930;42.678;23.312;2022-11-20T04:11:09;18.60;71.90
5808;DHT22;2930;42.678;23.312;2022-11-20T04:13:35;18.70;72.30
5808;DHT22;2930;42.678;23.312;2022-11-20T04:16:01;18.70;71.90
5808;DHT22;2930;42.678;23.312;2022-11-20T04:18:27;18.80;72.00
5808;DHT22;2930;42.678;23.312;2022-11-20T04:20:52;18.80;71.60
5808;DHT22;2930;42.678;23.312;2022-11-20T04:23:18;18.80;71.70
5808;DHT22;2930;42.678;23.312;2022-11-20T04:25:43;18.90;71.80
5808;DHT22;2930;42.678;23.312;2022-11-20T04:28:09;18.90;71.60
5808;DHT22;2930;42.678;23.312;2022-11-20T04:30:35;18.70;71.70
5808;DHT22;2930;42.678;23.312;2022-11-20T04:33:00;18.60;71.80
5808;DHT22;2930;42.678;23.312;2022-11-20T04:35:26;18.60;72.10
5808;DHT22;2930;42.678;23.312;2022-11-20T04:37:52;18.70;72.00
5808;DHT22;2930;42.678;23.312;2022-11-20T04:40:18;18.70;72.00
5808;DHT22;2930;42.678;23.312;2022-11-20T04:42:43;18.80;71.90
5808;DHT22;2930;42.678;23.312;2022-11-20T04:45:09;18.80;72.00
5808;DHT22;2930;42.678;23.312;2022-11-20T04:47:35;18.70;72.10
5808;DHT22;2930;42.678;23.312;2022-11-20T04:50:00;18.60;72.20
5808;DHT22;2930;42.678;23.312;2022-11-20T04:52:26;18.50;72.60
5808;DHT22;2930;42.678;23.312;2022-11-20T04:54:52;18.60;72.60
5808;DHT22;2930;42.678;23.312;2022-11-20T04:57:19;18.50;72.50
5808;DHT22;2930;42.678;23.312;2022-11-20T04:59:45;18.40;72.70
5808;DHT22;2930;42.678;23.312;2022-11-20T05:02:10;18.30;72.30
5808;DHT22;2930;42.678;23.312;2022-11-20T05:04:36;18.30;73.00
5808;DHT22;2930;42.678;23.312;2022-11-20T05:07:02;18.30;72.70
5808;DHT22;2930;42.678;23.312;2022-11-20T05:09:28;18.40;72.60
5808;DHT22;2930;42.678;23.312;2022-11-20T05:11:53;18.50;72.40
5808;DHT22;2930;42.678;23.312;2022-11-20T05:14:19;18.40;72.00
5808;DHT22;2930;42.678;23.312;2022-11-20T05:16:45;18.40;72.20
5808;DHT22;2930;42.678;23.312;2022-11-20T05:19:10;18.40;72.60
5808;DHT22;2930;42.678;23.312;2022-11-20T05:21:36;18.30;72.30
5808;DHT22;2930;42.678;23.312;2022-11-20T05:24:02;18.40;72.30
5808;DHT22;2930;42.678;23.312;2022-11-20T05:26:27;18.40;72.20
5808;DHT22;2930;42.678;23.312;2022-11-20T05:28:53;18.40;72.20
5808;DHT22;2930;42.678;23.312;2022-11-20T05:31:21;18.40;72.40
5808;DHT22;2930;42.678;23.312;2022-11-20T05:33:47;18.40;72.60
5808;DHT22;2930;42.678;23.312;2022-11-20T05:36:14;18.50;72.60
5808;DHT22;2930;42.678;23.312;2022-11-20T05:38:40;18.60;72.40
5808;DHT22;2930;42.678;23.312;2022-11-20T05:41:14;18.60;72.10
5808;DHT22;2930;42.678;23.312;2022-11-20T05:43:41;18.60;72.10
5808;DHT22;2930;42.678;23.312;2022-11-20T05:46:09;18.60;72.00
5808;DHT22;2930;42.678;23.312;2022-11-20T05:48:35;18.70;72.00
5808;DHT22;2930;42.678;23.312;2022-11-20T05:51:03;18.70;72.10
5808;DHT22;2930;42.678;23.312;2022-11-20T05:53:29;18.60;72.30
5808;DHT22;2930;42.678;23.312;2022-11-20T05:56:07;18.60;72.60
5808;DHT22;2930;42.678;23.312;2022-11-20T05:58:33;18.60;72.60
5808;DHT22;2930;42.678;23.312;2022-11-20T06:03:35;18.50;73.40
5808;DHT22;2930;42.678;23.312;2022-11-20T06:06:01;18.50;73.80
5808;DHT22;2930;42.678;23.312;2022-11-20T06:08:27;18.40;74.00
5808;DHT22;2930;42.678;23.312;2022-11-20T06:10:53;18.40;74.50
5808;DHT22;2930;42.678;23.312;2022-11-20T06:13:18;18.30;74.70
5808;DHT22;2930;42.678;23.312;2022-11-20T06:15:51;18.20;75.10
5808;DHT22;2930;42.678;23.312;2022-11-20T06:18:18;18.20;75.10
5808;DHT22;2930;42.678;23.312;2022-11-20T06:20:44;18.20;75.40
5808;DHT22;2930;42.678;23.312;2022-11-20T06:23:10;18.10;75.60
5808;DHT22;2930;42.678;23.312;2022-11-20T06:25:40;18.10;75.70
5808;DHT22;2930;42.678;23.312;2022-11-20T06:28:06;18.10;75.70
5808;DHT22;2930;42.678;23.312;2022-11-20T06:30:32;18.10;76.00
5808;DHT22;2930;42.678;23.312;2022-11-20T06:32:58;18.00;76.20
5808;DHT22;2930;42.678;23.312;2022-11-20T06:35:23;18.00;76.30
5808;DHT22;2930;42.678;23.312;2022-11-20T06:37:49;18.00;76.40
5808;DHT22;2930;42.678;23.312;2022-11-20T06:40:15;18.00;76.20
5808;DHT22;2930;42.678;23.312;2022-11-20T06:42:40;18.10;76.20
5808;DHT22;2930;42.678;23.312;2022-11-20T06:45:07;18.10;76.10
5808;DHT22;2930;42.678;23.312;2022-11-20T06:47:33;18.10;76.10
5808;DHT22;2930;42.678;23.312;2022-11-20T06:49:58;18.20;76.00
5808;DHT22;2930;42.678;23.312;2022-11-20T06:52:24;18.30;75.80
5808;DHT22;2930;42.678;23.312;2022-11-20T06:54:50;18.30;75.70
5808;DHT22;2930;42.678;23.312;2022-11-20T06:57:15;18.40;75.70
5808;DHT22;2930;42.678;23.312;2022-11-20T06:59:41;18.60;75.50
5808;DHT22;2930;42.678;23.312;2022-11-20T07:02:13;18.70;75.60
5808;DHT22;2930;42.678;23.312;2022-11-20T07:04:39;18.80;75.50
5808;DHT22;2930;42.678;23.312;2022-11-20T07:07:05;19.00;74.80
5808;DHT22;2930;42.678;23.312;2022-11-20T07:09:32;19.10;74.60
5808;DHT22;2930;42.678;23.312;2022-11-20T07:11:59;19.20;74.70
5808;DHT22;2930;42.678;23.312;2022-11-20T07:14:24;19.20;74.60
5808;DHT22;2930;42.678;23.312;2022-11-20T07:16:50;19.30;74.40
5808;DHT22;2930;42.678;23.312;2022-11-20T07:19:16;19.40;73.60
5808;DHT22;2930;42.678;23.312;2022-11-20T07:21:41;19.40;73.50
5808;DHT22;2930;42.678;23.312;2022-11-20T07:24:07;19.50;73.30
5808;DHT22;2930;42.678;23.312;2022-11-20T07:26:33;19.50;73.30
5808;DHT22;2930;42.678;23.312;2022-11-20T07:28:58;19.50;73.00
5808;DHT22;2930;42.678;23.312;2022-11-20T07:31:24;19.60;72.70
5808;DHT22;2930;42.678;23.312;2022-11-20T07:33:50;19.50;72.20
5808;DHT22;2930;42.678;23.312;2022-11-20T07:36:15;19.50;72.60
5808;DHT22;2930;42.678;23.312;2022-11-20T07:38:41;19.50;72.10
5808;DHT22;2930;42.678;23.312;2022-11-20T07:41:07;19.40;70.80
5808;DHT22;2930;42.678;23.312;2022-11-20T07:43:32;19.30;71.90
5808;DHT22;2930;42.678;23.312;2022-11-20T07:45:58;19.40;72.10
5808;DHT22;2930;42.678;23.312;2022-11-20T07:48:25;19.40;72.50
5808;DHT22;2930;42.678;23.312;2022-11-20T07:50:57;19.40;72.70
5808;DHT22;2930;42.678;23.312;2022-11-20T07:53:23;19.40;72.70
5808;DHT22;2930;42.678;23.312;2022-11-20T07:55:49;19.40;72.70
5808;DHT22;2930;42.678;23.312;2022-11-20T07:58:18;19.50;72.50
5808;DHT22;2930;42.678;23.312;2022-11-20T08:00:44;19.50;72.30
5808;DHT22;2930;42.678;23.312;2022-11-20T08:03:09;19.50;72.40
5808;DHT22;2930;42.678;23.312;2022-11-20T08:05:35;19.50;72.50
5808;DHT22;2930;42.678;23.312;2022-11-20T08:08:01;19.50;72.70
5808;DHT22;2930;42.678;23.312;2022-11-20T08:10:26;19.50;72.80
5808;DHT22;2930;42.678;23.312;2022-11-20T08:12:53;19.60;72.50
5808;DHT22;2930;42.678;23.312;2022-11-20T08:15:38;19.60;72.10
5808;DHT22;2930;42.678;23.312;2022-11-20T08:18:10;19.60;72.50
5808;DHT22;2930;42.678;23.312;2022-11-20T08:20:36;19.70;72.70
5808;DHT22;2930;42.678;23.312;2022-11-20T08:23:04;19.90;71.30
5808;DHT22;2930;42.678;23.312;2022-11-20T08:25:32;20.00;71.60
5808;DHT22;2930;42.678;23.312;2022-11-20T08:27:59;20.10;71.80
5808;DHT22;2930;42.678;23.312;2022-11-20T08:30:25;20.10;70.80
5808;DHT22;2930;42.678;23.312;2022-11-20T08:32:51;20.20;71.20
5808;DHT22;2930;42.678;23.312;2022-11-20T08:35:16;20.20;71.20
5808;DHT22;2930;42.678;23.312;2022-11-20T08:37:45;20.40;70.30
5808;DHT22;2930;42.678;23.312;2022-11-20T08:40:11;20.40;70.90
5808;DHT22;2930;42.678;23.312;2022-11-20T08:42:37;20.50;71.10
5808;DHT22;2930;42.678;23.312;2022-11-20T08:45:03;20.60;70.60
5808;DHT22;2930;42.678;23.312;2022-11-20T08:47:30;20.60;70.20
5808;DHT22;2930;42.678;23.312;2022-11-20T08:49:55;20.50;69.20
5808;DHT22;2930;42.678;23.312;2022-11-20T08:52:21;20.10;72.40
5808;DHT22;2930;42.678;23.312;2022-11-20T08:54:46;19.80;74.40
5808;DHT22;2930;42.678;23.312;2022-11-20T08:57:12;19.50;75.40
5808;DHT22;2930;42.678;23.312;2022-11-20T08:59:38;19.30;76.20
5808;DHT22;2930;42.678;23.312;2022-11-20T09:02:03;18.90;76.30
5808;DHT22;2930;42.678;23.312;2022-11-20T09:04:29;18.80;77.20
5808;DHT22;2930;42.678;23.312;2022-11-20T09:06:54;18.60;77.80
5808;DHT22;2930;42.678;23.312;2022-11-20T09:09:20;18.60;77.90
5808;DHT22;2930;42.678;23.312;2022-11-20T09:11:46;18.50;77.60
5808;DHT22;2930;42.678;23.312;2022-11-20T09:14:11;18.30;78.10
5808;DHT22;2930;42.678;23.312;2022-11-20T09:16:37;18.30;78.30
5808;DHT22;2930;42.678;23.312;2022-11-20T09:19:03;18.30;78.80
5808;DHT22;2930;42.678;23.312;2022-11-20T09:21:28;18.10;79.10
5808;DHT22;2930;42.678;23.312;2022-11-20T09:23:54;18.00;79.70
5808;DHT22;2930;42.678;23.312;2022-11-20T09:26:19;17.80;79.30
5808;DHT22;2930;42.678;23.312;2022-11-20T09:28:47;17.70;80.60
5808;DHT22;2930;42.678;23.312;2022-11-20T09:31:24;17.50;81.50
5808;DHT22;2930;42.678;23.312;2022-11-20T09:33:50;17.50;81.20
5808;DHT22;2930;42.678;23.312;2022-11-20T09:36:16;17.30;81.00
5808;DHT22;2930;42.678;23.312;2022-11-20T09:38:44;17.30;81.30
5808;DHT22;2930;42.678;23.312;2022-11-20T09:47:14;17.30;82.90
5808;DHT22;2930;42.678;23.312;2022-11-20T09:53:09;17.80;81.90
5808;DHT22;2930;42.678;23.312;2022-11-20T09:55:37;18.10;82.40
5808;DHT22;2930;42.678;23.312;2022-11-20T09:58:06;18.40;82.60
5808;DHT22;2930;42.678;23.312;2022-11-20T10:00:35;18.70;83.20
5808;DHT22;2930;42.678;23.312;2022-11-20T10:03:10;19.10;83.70
5808;DHT22;2930;42.678;23.312;2022-11-20T10:05:51;19.60;84.30
5808;DHT22;2930;42.678;23.312;2022-11-20T10:08:45;20.30;83.00
5808;DHT22;2930;42.678;23.312;2022-11-20T10:25:38;24.00;72.20
5808;DHT22;2930;42.678;23.312;2022-11-20T10:30:57;24.20;72.20
5808;DHT22;2930;42.678;23.312;2022-11-20T10:33:27;24.10;72.20
5808;DHT22;2930;42.678;23.312;2022-11-20T10:38:34;24.20;72.40
5808;DHT22;2930;42.678;23.312;2022-11-20T10:41:03;24.20;72.40
5808;DHT22;2930;42.678;23.312;2022-11-20T10:44:29;24.20;71.90
5808;DHT22;2930;42.678;23.312;2022-11-20T10:47:18;24.00;71.60
5808;DHT22;2930;42.678;23.312;2022-11-20T10:49:46;23.90;71.80
5808;DHT22;2930;42.678;23.312;2022-11-20T10:52:32;23.70;71.90
5808;DHT22;2930;42.678;23.312;2022-11-20T10:55:24;23.50;72.00
5808;DHT22;2930;42.678;23.312;2022-11-20T11:00:42;22.70;72.10
5808;DHT22;2930;42.678;23.312;2022-11-20T11:03:33;22.40;72.80
5808;DHT22;2930;42.678;23.312;2022-11-20T11:08:34;21.20;75.20
5808;DHT22;2930;42.678;23.312;2022-11-20T11:11:07;20.20;76.10
5808;DHT22;2930;42.678;23.312;2022-11-20T11:13:36;19.10;77.70
5808;DHT22;2930;42.678;23.312;2022-11-20T11:16:03;18.10;79.80
5808;DHT22;2930;42.678;23.312;2022-11-20T11:18:33;17.20;84.70
5808;DHT22;2930;42.678;23.312;2022-11-20T11:21:01;16.80;81.90
5808;DHT22;2930;42.678;23.312;2022-11-20T11:25:57;15.70;84.20
5808;DHT22;2930;42.678;23.312;2022-11-20T11:28:24;15.40;84.70
5808;DHT22;2930;42.678;23.312;2022-11-20T11:30:52;14.90;85.50
5808;DHT22;2930;42.678;23.312;2022-11-20T11:35:50;14.50;87.40
5808;DHT22;2930;42.678;23.312;2022-11-20T11:38:42;14.20;88.70
5808;DHT22;2930;42.678;23.312;2022-11-20T11:41:22;13.90;89.30
5808;DHT22;2930;42.678;23.312;2022-11-20T11:43:56;13.70;90.00
5808;DHT22;2930;42.678;23.312;2022-11-20T11:46:55;13.60;89.70
5808;DHT22;2930;42.678;23.312;2022-11-20T11:49:22;13.50;90.10
5808;DHT22;2930;42.678;23.312;2022-11-20T11:52:17;13.50;89.80
5808;DHT22;2930;42.678;23.312;2022-11-20T11:54:53;13.30;90.50
5808;DHT22;2930;42.678;23.312;2022-11-20T11:57:28;13.30;90.60
5808;DHT22;2930;42.678;23.312;2022-11-20T12:02:36;13.40;91.10
5808;DHT22;2930;42.678;23.312;2022-11-20T12:15:51;13.50;89.70
5808;DHT22;2930;42.678;23.312;2022-11-20T12:18:20;13.50;89.70
5808;DHT22;2930;42.678;23.312;2022-11-20T12:23:58;13.50;89.00
5808;DHT22;2930;42.678;23.312;2022-11-20T12:40:48;13.20;91.50
5808;DHT22;2930;42.678;23.312;2022-11-20T12:43:27;13.20;91.00
5808;DHT22;2930;42.678;23.312;2022-11-20T13:08:03;13.70;91.10
5808;DHT22;2930;42.678;23.312;2022-11-20T13:16:24;13.80;91.90
5808;DHT22;2930;42.678;23.312;2022-11-20T13:18:51;13.80;93.10
5808;DHT22;2930;42.678;23.312;2022-11-20T13:21:22;13.50;94.40
5808;DHT22;2930;42.678;23.312;2022-11-20T13:23:48;13.50;94.30
5808;DHT22;2930;42.678;23.312;2022-11-20T13:26:24;13.50;91.90
5808;DHT22;2930;42.678;23.312;2022-11-20T13:29:16;13.60;90.90
5808;DHT22;2930;42.678;23.312;2022-11-20T13:31:44;13.60;91.70
5808;DHT22;2930;42.678;23.312;2022-11-20T13:34:14;13.70;92.10
5808;DHT22;2930;42.678;23.312;2022-11-20T13:36:53;13.70;91.40
5808;DHT22;2930;42.678;23.312;2022-11-20T13:39:27;13.80;90.90
5808;DHT22;2930;42.678;23.312;2022-11-20T13:42:01;13.80;90.70
5808;DHT22;2930;42.678;23.312;2022-11-20T13:44:38;13.80;91.50
5808;DHT22;2930;42.678;23.312;2022-11-20T13:47:23;13.80;90.80
5808;DHT22;2930;42.678;23.312;2022-11-20T13:49:51;13.90;91.90
5808;DHT22;2930;42.678;23.312;2022-11-20T13:56:04;13.90;90.50
5808;DHT22;2930;42.678;23.312;2022-11-20T14:01:23;13.90;92.10
5808;DHT22;2930;42.678;23.312;2022-11-20T14:03:49;13.90;91.80
5808;DHT22;2930;42.678;23.312;2022-11-20T14:06:41;13.90;91.20
5808;DHT22;2930;42.678;23.312;2022-11-20T14:09:12;13.90;91.20
5808;DHT22;2930;42.678;23.312;2022-11-20T14:11:46;13.90;90.60
5808;DHT22;2930;42.678;23.312;2022-11-20T14:14:19;13.90;90.60
5808;DHT22;2930;42.678;23.312;2022-11-20T14:16:47;13.90;90.80
5808;DHT22;2930;42.678;23.312;2022-11-20T14:19:25;13.90;91.00
5808;DHT22;2930;42.678;23.312;2022-11-20T14:22:17;14.00;91.30
5808;DHT22;2930;42.678;23.312;2022-11-20T14:24:39;14.00;91.40
5808;DHT22;2930;42.678;23.312;2022-11-20T14:27:13;14.00;91.20
5808;DHT22;2930;42.678;23.312;2022-11-20T14:29:39;14.00;90.60
5808;DHT22;2930;42.678;23.312;2022-11-20T14:32:09;14.00;91.10
5808;DHT22;2930;42.678;23.312;2022-11-20T14:34:39;14.00;91.30
5808;DHT22;2930;42.678;23.312;2022-11-20T14:37:12;14.00;91.10
5808;DHT22;2930;42.678;23.312;2022-11-20T14:39:42;14.00;90.60
5808;DHT22;2930;42.678;23.312;2022-11-20T14:42:23;14.00;90.40
5808;DHT22;2930;42.678;23.312;2022-11-20T14:44:50;14.00;90.20
5808;DHT22;2930;42.678;23.312;2022-11-20T14:47:19;14.00;90.70
5808;DHT22;2930;42.678;23.312;2022-11-20T14:49:46;14.10;91.40
5808;DHT22;2930;42.678;23.312;2022-11-20T14:52:24;14.10;91.30
5808;DHT22;2930;42.678;23.312;2022-11-20T14:54:55;14.10;91.20
5808;DHT22;2930;42.678;23.312;2022-11-20T14:57:29;14.10;91.00
5808;DHT22;2930;42.678;23.312;2022-11-20T15:02:46;13.90;89.90
5808;DHT22;2930;42.678;23.312;2022-11-20T15:05:13;13.90;89.80
5808;DHT22;2930;42.678;23.312;2022-11-20T15:07:45;13.90;90.00
5808;DHT22;2930;42.678;23.312;2022-11-20T15:10:23;13.80;90.00
5808;DHT22;2930;42.678;23.312;2022-11-20T15:12:54;13.80;89.90
5808;DHT22;2930;42.678;23.312;2022-11-20T15:15:23;13.80;89.60
5808;DHT22;2930;42.678;23.312;2022-11-20T15:17:51;13.60;89.90
5808;DHT22;2930;42.678;23.312;2022-11-20T15:20:17;13.60;90.20
5808;DHT22;2930;42.678;23.312;2022-11-20T15:22:43;13.60;90.20
5808;DHT22;2930;42.678;23.312;2022-11-20T15:25:16;13.60;90.50
5808;DHT22;2930;42.678;23.312;2022-11-20T15:27:43;13.50;90.50
5808;DHT22;2930;42.678;23.312;2022-11-20T15:30:17;13.60;90.70
5808;DHT22;2930;42.678;23.312;2022-11-20T15:32:44;13.50;90.90
5808;DHT22;2930;42.678;23.312;2022-11-20T15:35:10;13.50;91.10
5808;DHT22;2930;42.678;23.312;2022-11-20T15:37:37;13.50;91.30
5808;DHT22;2930;42.678;23.312;2022-11-20T15:40:04;13.40;91.30
5808;DHT22;2930;42.678;23.312;2022-11-20T15:42:30;13.20;91.80
5808;DHT22;2930;42.678;23.312;2022-11-20T15:44:56;13.10;92.20
5808;DHT22;2930;42.678;23.312;2022-11-20T15:47:33;13.10;92.60
5808;DHT22;2930;42.678;23.312;2022-11-20T15:49:59;13.10;93.80
5808;DHT22;2930;42.678;23.312;2022-11-20T15:52:25;13.00;94.60
5808;DHT22;2930;42.678;23.312;2022-11-20T15:54:51;13.00;93.90
5808;DHT22;2930;42.678;23.312;2022-11-20T15:57:16;13.00;93.10
5808;DHT22;2930;42.678;23.312;2022-11-20T15:59:42;13.10;92.90
5808;DHT22;2930;42.678;23.312;2022-11-20T16:02:11;13.10;92.80
5808;DHT22;2930;42.678;23.312;2022-11-20T16:04:37;13.10;92.50
5808;DHT22;2930;42.678;23.312;2022-11-20T16:07:04;13.10;92.70
5808;DHT22;2930;42.678;23.312;2022-11-20T16:09:30;13.10;92.70
5808;DHT22;2930;42.678;23.312;2022-11-20T16:11:55;13.10;92.50
5808;DHT22;2930;42.678;23.312;2022-11-20T16:14:23;13.10;92.40
5808;DHT22;2930;42.678;23.312;2022-11-20T16:17:07;13.00;92.60
5808;DHT22;2930;42.678;23.312;2022-11-20T16:19:33;13.00;92.40
5808;DHT22;2930;42.678;23.312;2022-11-20T16:21:58;13.00;92.50
5808;DHT22;2930;42.678;23.312;2022-11-20T16:24:26;13.00;92.20
5808;DHT22;2930;42.678;23.312;2022-11-20T16:26:53;13.00;91.90
5808;DHT22;2930;42.678;23.312;2022-11-20T16:29:19;13.00;91.90
5808;DHT22;2930;42.678;23.312;2022-11-20T16:31:45;13.00;92.20
5808;DHT22;2930;42.678;23.312;2022-11-20T16:34:10;13.00;92.80
5808;DHT22;2930;42.678;23.312;2022-11-20T16:36:39;13.00;92.40
5808;DHT22;2930;42.678;23.312;2022-11-20T16:39:05;13.00;92.10
5808;DHT22;2930;42.678;23.312;2022-11-20T16:41:32;13.00;92.20
5808;DHT22;2930;42.678;23.312;2022-11-20T16:44:00;12.90;92.00
5808;DHT22;2930;42.678;23.312;2022-11-20T16:46:28;12.90;91.60
5808;DHT22;2930;42.678;23.312;2022-11-20T16:49:00;12.90;91.30
5808;DHT22;2930;42.678;23.312;2022-11-20T16:51:28;13.00;91.50
5808;DHT22;2930;42.678;23.312;2022-11-20T16:53:54;13.00;92.50
5808;DHT22;2930;42.678;23.312;2022-11-20T16:56:22;13.00;91.70
5808;DHT22;2930;42.678;23.312;2022-11-20T16:58:49;12.90;91.40
5808;DHT22;2930;42.678;23.312;2022-11-20T17:01:17;12.90;91.70
5808;DHT22;2930;42.678;23.312;2022-11-20T17:03:46;13.00;92.50
5808;DHT22;2930;42.678;23.312;2022-11-20T17:06:14;13.00;92.20
5808;DHT22;2930;42.678;23.312;2022-11-20T17:08:40;13.00;92.00
5808;DHT22;2930;42.678;23.312;2022-11-20T17:11:07;12.90;91.80
5808;DHT22;2930;42.678;23.312;2022-11-20T17:13:34;12.90;91.40
5808;DHT22;2930;42.678;23.312;2022-11-20T17:16:01;12.90;92.10
5808;DHT22;2930;42.678;23.312;2022-11-20T17:18:27;12.90;92.20
5808;DHT22;2930;42.678;23.312;2022-11-20T17:20:53;12.90;92.20
5808;DHT22;2930;42.678;23.312;2022-11-20T17:23:19;12.90;92.10
5808;DHT22;2930;42.678;23.312;2022-11-20T17:25:44;12.80;92.60
5808;DHT22;2930;42.678;23.312;2022-11-20T17:28:10;12.80;92.80
5808;DHT22;2930;42.678;23.312;2022-11-20T17:30:36;12.70;92.40
5808;DHT22;2930;42.678;23.312;2022-11-20T17:33:01;12.70;93.10
5808;DHT22;2930;42.678;23.312;2022-11-20T17:35:27;12.70;92.80
5808;DHT22;2930;42.678;23.312;2022-11-20T17:37:53;12.60;93.20
5808;DHT22;2930;42.678;23.312;2022-11-20T17:40:19;12.60;93.40
5808;DHT22;2930;42.678;23.312;2022-11-20T17:42:44;12.60;93.40
5808;DHT22;2930;42.678;23.312;2022-11-20T17:45:10;12.60;93.60
5808;DHT22;2930;42.678;23.312;2022-11-20T17:47:35;12.50;93.30
5808;DHT22;2930;42.678;23.312;2022-11-20T17:50:02;12.50;93.70
5808;DHT22;2930;42.678;23.312;2022-11-20T17:52:27;12.50;93.60
5808;DHT22;2930;42.678;23.312;2022-11-20T17:54:53;12.30;93.80